sensor_id;sensor_type;location;lat;lon;timestamp;temperature;humidity
1447;DHT22;717;51.522;7.266;2023-05-07T00:00:07;19.60;99.90
1447;DHT22;717;51.522;7.266;2023-05-07T00:02:36;19.60;99.90
1447;DHT22;717;51.522;7.266;2023-05-07T00:05:07;19.60;99.90
1447;DHT22;717;51.522;7.266;2023-05-07T00:07:35;19.60;99.90
1447;DHT22;717;51.522;7.266;2023-05-07T00:10:08;19.50;99.90
1447;DHT22;717;51.522;7.266;2023-05-07T00:12:37;19.60;99.90
1447;DHT22;717;51.522;7.266;2023-05-07T00:15:07;19.50;99.90
1447;DHT22;717;51.522;7.266;2023-05-07T00:17:36;19.50;99.90
1447;DHT22;717;51.522;7.266;2023-05-07T00:20:06;19.60;99.90
1447;DHT22;717;51.522;7.266;2023-05-07T00:22:35;19.50;99.90
1447;DHT22;717;51.522;7.266;2023-05-07T00:25:07;19.50;99.90
1447;DHT22;717;51.522;7.266;2023-05-07T00:27:36;19.60;99.90
1447;DHT22;717;51.522;7.266;2023-05-07T00:30:06;19.50;99.90
1447;DHT22;717;51.522;7.266;2023-05-07T00:32:35;19.50;99.90
1447;DHT22;717;51.522;7.266;2023-05-07T00:35:05;19.50;99.90
1447;DHT22;717;51.522;7.266;2023-05-07T00:37:33;19.50;99.90
1447;DHT22;717;51.522;7.266;2023-05-07T00:40:03;19.50;99.90
1447;DHT22;717;51.522;7.266;2023-05-07T00:42:35;19.50;99.90
1447;DHT22;717;51.522;7.266;2023-05-07T00:45:06;19.40;99.90
1447;DHT22;717;51.522;7.266;2023-05-07T00:47:36;19.50;99.90
1447;DHT22;717;51.522;7.266;2023-05-07T00:50:06;19.40;99.90
1447;DHT22;717;51.522;7.266;2023-05-07T00:52:36;19.40;99.90
1447;DHT22;717;51.522;7.266;2023-05-07T00:55:07;19.40;99.90
1447;DHT22;717;51.522;7.266;2023-05-07T00:57:40;19.40;99.90
1447;DHT22;717;51.522;7.266;2023-05-07T01:00:10;19.40;99.90
1447;DHT22;717;51.522;7.266;2023-05-07T01:02:39;19.40;99.90
1447;DHT22;717;51.522;7.266;2023-05-07T01:05:10;19.40;99.90
1447;DHT22;717;51.522;7.266;2023-05-07T01:07:41;19.40;99.90
1447;DHT22;717;51.522;7.266;2023-05-07T01:10:10;19.40;99.90
1447;DHT22;717;51.522;7.266;2023-05-07T01:12:43;19.40;99.90
1447;DHT22;717;51.522;7.266;2023-05-07T01:15:13;19.40;99.90
1447;DHT22;717;51.522;7.266;2023-05-07T01:17:42;19.40;99.90
1447;DHT22;717;51.522;7.266;2023-05-07T01:20:11;19.40;99.90
1447;DHT22;717;51.522;7.266;2023-05-07T01:22:43;19.40;99.90
1447;DHT22;717;51.522;7.266;2023-05-07T01:25:12;19.40;99.90
1447;DHT22;717;51.522;7.266;2023-05-07T01:27:41;19.40;99.90
1447;DHT22;717;51.522;7.266;2023-05-07T01:30:11;19.30;99.90
1447;DHT22;717;51.522;7.266;2023-05-07T01:32:43;19.40;99.90
1447;DHT22;717;51.522;7.266;2023-05-07T01:35:15;19.40;99.90
1447;DHT22;717;51.522;7.266;2023-05-07T01:37:48;19.30;99.90
1447;DHT22;717;51.522;7.266;2023-05-07T01:40:17;19.40;99.90
1447;DHT22;717;51.522;7.266;2023-05-07T01:42:46;19.30;99.90
1447;DHT22;717;51.522;7.266;2023-05-07T01:45:15;19.40;99.90
1447;DHT22;717;51.522;7.266;2023-05-07T01:47:44;19.40;99.90
1447;DHT22;717;51.522;7.266;2023-05-07T01:50:16;19.40;99.90
1447;DHT22;717;51.522;7.266;2023-05-07T01:52:50;19.30;99.90
1447;DHT22;717;51.522;7.266;2023-05-07T01:55:18;19.40;99.90
1447;DHT22;717;51.522;7.266;2023-05-07T01:57:47;19.30;99.90
1447;DHT22;717;51.522;7.266;2023-05-07T02:00:16;19.30;99.90
1447;DHT22;717;51.522;7.266;2023-05-07T02:02:45;19.30;99.90
1447;DHT22;717;51.522;7.266;2023-05-07T02:05:14;19.40;99.90
1447;DHT22;717;51.522;7.266;2023-05-07T02:07:43;19.30;99.90
1447;DHT22;717;51.522;7.266;2023-05-07T02:10:14;19.30;99.90
1447;DHT22;717;51.522;7.266;2023-05-07T02:12:42;19.30;99.90
1447;DHT22;717;51.522;7.266;2023-05-07T02:15:11;19.30;99.90
1447;DHT22;717;51.522;7.266;2023-05-07T02:17:58;19.30;99.90
1447;DHT22;717;51.522;7.266;2023-05-07T02:20:27;19.30;99.90
1447;DHT22;717;51.522;7.266;2023-05-07T02:22:56;19.20;99.90
1447;DHT22;717;51.522;7.266;2023-05-07T02:25:27;19.30;99.90
1447;DHT22;717;51.522;7.266;2023-05-07T02:27:55;19.30;99.90
1447;DHT22;717;51.522;7.266;2023-05-07T02:30:24;19.30;99.90
1447;DHT22;717;51.522;7.266;2023-05-07T02:32:53;19.20;99.90
1447;DHT22;717;51.522;7.266;2023-05-07T02:35:22;19.30;99.90
1447;DHT22;717;51.522;7.266;2023-05-07T02:37:52;19.20;99.90
1447;DHT22;717;51.522;7.266;2023-05-07T02:40:20;19.20;99.90
1447;DHT22;717;51.522;7.266;2023-05-07T02:42:52;19.20;99.90
1447;DHT22;717;51.522;7.266;2023-05-07T02:45:20;19.20;99.90
1447;DHT22;717;51.522;7.266;2023-05-07T02:47:49;19.20;99.90
1447;DHT22;717;51.522;7.266;2023-05-07T02:50:18;19.10;99.90
1447;DHT22;717;51.522;7.266;2023-05-07T02:52:46;19.10;99.90
1447;DHT22;717;51.522;7.266;2023-05-07T02:55:15;19.10;99.90
1447;DHT22;717;51.522;7.266;2023-05-07T02:57:44;19.10;99.90
1447;DHT22;717;51.522;7.266;2023-05-07T03:00:17;19.20;99.90
1447;DHT22;717;51.522;7.266;2023-05-07T03:02:46;19.10;99.90
1447;DHT22;717;51.522;7.266;2023-05-07T03:05:15;19.10;99.90
1447;DHT22;717;51.522;7.266;2023-05-07T03:07:43;19.10;99.90
1447;DHT22;717;51.522;7.266;2023-05-07T03:10:13;19.10;99.90
1447;DHT22;717;51.522;7.266;2023-05-07T03:12:41;19.10;99.90
1447;DHT22;717;51.522;7.266;2023-05-07T03:15:10;19.10;99.90
1447;DHT22;717;51.522;7.266;2023-05-07T03:17:42;19.10;99.90
1447;DHT22;717;51.522;7.266;2023-05-07T03:20:11;19.10;99.90
1447;DHT22;717;51.522;7.266;2023-05-07T03:22:40;19.10;99.90
1447;DHT22;717;51.522;7.266;2023-05-07T03:25:09;19.10;99.90
1447;DHT22;717;51.522;7.266;2023-05-07T03:27:37;19.10;99.90
1447;DHT22;717;51.522;7.266;2023-05-07T03:30:08;19.00;99.90
1447;DHT22;717;51.522;7.266;2023-05-07T03:32:37;19.00;99.90
1447;DHT22;717;51.522;7.266;2023-05-07T03:35:08;19.00;99.90
1447;DHT22;717;51.522;7.266;2023-05-07T03:37:37;19.00;99.90
1447;DHT22;717;51.522;7.266;2023-05-07T03:40:07;19.00;99.90
1447;DHT22;717;51.522;7.266;2023-05-07T03:42:36;19.00;99.90
1447;DHT22;717;51.522;7.266;2023-05-07T03:45:05;19.00;99.90
1447;DHT22;717;51.522;7.266;2023-05-07T03:47:34;19.00;99.90
1447;DHT22;717;51.522;7.266;2023-05-07T03:50:03;19.00;99.90
1447;DHT22;717;51.522;7.266;2023-05-07T03:52:35;19.00;99.90
1447;DHT22;717;51.522;7.266;2023-05-07T03:55:04;19.00;99.90
1447;DHT22;717;51.522;7.266;2023-05-07T03:57:33;19.00;99.90
1447;DHT22;717;51.522;7.266;2023-05-07T04:00:01;19.00;99.90
1447;DHT22;717;51.522;7.266;2023-05-07T04:02:32;19.00;99.90
1447;DHT22;717;51.522;7.266;2023-05-07T04:05:01;19.00;99.90
1447;DHT22;717;51.522;7.266;2023-05-07T04:07:30;19.00;99.90
1447;DHT22;717;51.522;7.266;2023-05-07T04:10:01;18.90;99.90
1447;DHT22;717;51.522;7.266;2023-05-07T04:12:30;18.90;99.90
1447;DHT22;717;51.522;7.266;2023-05-07T04:14:59;19.00;99.90
1447;DHT22;717;51.522;7.266;2023-05-07T04:17:27;18.90;99.90
1447;DHT22;717;51.522;7.266;2023-05-07T04:19:56;18.90;99.90
1447;DHT22;717;51.522;7.266;2023-05-07T04:22:25;18.90;99.90
1447;DHT22;717;51.522;7.266;2023-05-07T04:24:53;18.90;99.90
1447;DHT22;717;51.522;7.266;2023-05-07T04:27:24;18.90;99.90
1447;DHT22;717;51.522;7.266;2023-05-07T04:29:53;18.90;99.90
1447;DHT22;717;51.522;7.266;2023-05-07T04:32:23;18.90;99.90
1447;DHT22;717;51.522;7.266;2023-05-07T04:34:52;18.90;99.90
1447;DHT22;717;51.522;7.266;2023-05-07T04:37:21;18.90;99.90
1447;DHT22;717;51.522;7.266;2023-05-07T04:39:49;18.90;99.90
1447;DHT22;717;51.522;7.266;2023-05-07T04:42:18;18.90;99.90
1447;DHT22;717;51.522;7.266;2023-05-07T04:44:53;18.90;99.90
1447;DHT22;717;51.522;7.266;2023-05-07T04:47:21;18.90;99.90
1447;DHT22;717;51.522;7.266;2023-05-07T04:49:50;18.90;99.90
1447;DHT22;717;51.522;7.266;2023-05-07T04:52:18;18.90;99.90
1447;DHT22;717;51.522;7.266;2023-05-07T04:54:47;18.90;99.90
1447;DHT22;717;51.522;7.266;2023-05-07T04:57:16;18.90;99.90
1447;DHT22;717;51.522;7.266;2023-05-07T04:59:45;18.90;99.90
1447;DHT22;717;51.522;7.266;2023-05-07T05:02:16;18.90;99.90
1447;DHT22;717;51.522;7.266;2023-05-07T05:04:45;18.90;99.90
1447;DHT22;717;51.522;7.266;2023-05-07T05:07:13;18.90;99.90
1447;DHT22;717;51.522;7.266;2023-05-07T05:09:42;18.90;99.90
1447;DHT22;717;51.522;7.266;2023-05-07T05:12:10;18.90;99.90
1447;DHT22;717;51.522;7.266;2023-05-07T05:14:39;18.90;99.90
1447;DHT22;717;51.522;7.266;2023-05-07T05:17:08;18.90;99.90
1447;DHT22;717;51.522;7.266;2023-05-07T05:19:39;18.90;99.90
1447;DHT22;717;51.522;7.266;2023-05-07T05:22:08;18.90;99.90
1447;DHT22;717;51.522;7.266;2023-05-07T05:24:36;18.90;99.90
1447;DHT22;717;51.522;7.266;2023-05-07T05:27:05;18.90;99.90
1447;DHT22;717;51.522;7.266;2023-05-07T05:29:33;19.00;99.90
1447;DHT22;717;51.522;7.266;2023-05-07T05:32:02;19.00;99.90
1447;DHT22;717;51.522;7.266;2023-05-07T05:34:31;19.00;99.90
1447;DHT22;717;51.522;7.266;2023-05-07T05:37:02;19.00;99.90
1447;DHT22;717;51.522;7.266;2023-05-07T05:39:30;19.00;99.90
1447;DHT22;717;51.522;7.266;2023-05-07T05:41:59;19.00;99.90
1447;DHT22;717;51.522;7.266;2023-05-07T05:44:27;19.00;99.90
1447;DHT22;717;51.522;7.266;2023-05-07T05:46:56;19.00;99.90
1447;DHT22;717;51.522;7.266;2023-05-07T05:49:25;19.00;99.90
1447;DHT22;717;51.522;7.266;2023-05-07T05:51:54;19.10;99.90
1447;DHT22;717;51.522;7.266;2023-05-07T05:54:25;19.00;99.90
1447;DHT22;717;51.522;7.266;2023-05-07T05:56:53;19.00;99.90
1447;DHT22;717;51.522;7.266;2023-05-07T05:59:22;19.00;99.90
1447;DHT22;717;51.522;7.266;2023-05-07T06:01:51;19.00;99.90
1447;DHT22;717;51.522;7.266;2023-05-07T06:04:19;19.00;99.90
1447;DHT22;717;51.522;7.266;2023-05-07T06:06:48;19.10;99.90
1447;DHT22;717;51.522;7.266;2023-05-07T06:09:16;19.10;99.90
1447;DHT22;717;51.522;7.266;2023-05-07T06:11:48;19.10;99.90
1447;DHT22;717;51.522;7.266;2023-05-07T06:14:17;19.10;99.90
1447;DHT22;717;51.522;7.266;2023-05-07T06:16:45;19.10;99.90
1447;DHT22;717;51.522;7.266;2023-05-07T06:19:14;19.10;99.90
1447;DHT22;717;51.522;7.266;2023-05-07T06:21:43;19.10;99.90
1447;DHT22;717;51.522;7.266;2023-05-07T06:24:12;19.20;99.90
1447;DHT22;717;51.522;7.266;2023-05-07T06:26:40;19.20;99.90
1447;DHT22;717;51.522;7.266;2023-05-07T06:29:11;19.20;99.90
1447;DHT22;717;51.522;7.266;2023-05-07T06:31:40;19.20;99.90
1447;DHT22;717;51.522;7.266;2023-05-07T06:34:09;19.30;99.90
1447;DHT22;717;51.522;7.266;2023-05-07T06:36:39;19.30;99.90
1447;DHT22;717;51.522;7.266;2023-05-07T06:39:08;19.30;99.90
1447;DHT22;717;51.522;7.266;2023-05-07T06:41:36;19.30;99.90
1447;DHT22;717;51.522;7.266;2023-05-07T06:44:05;19.30;99.90
1447;DHT22;717;51.522;7.266;2023-05-07T06:46:36;19.30;99.90
1447;DHT22;717;51.522;7.266;2023-05-07T06:49:05;19.40;99.90
1447;DHT22;717;51.522;7.266;2023-05-07T06:51:33;19.40;99.90
1447;DHT22;717;51.522;7.266;2023-05-07T06:54:02;19.40;99.90
1447;DHT22;717;51.522;7.266;2023-05-07T06:56:31;19.40;99.90
1447;DHT22;717;51.522;7.266;2023-05-07T06:59:00;19.40;99.90
1447;DHT22;717;51.522;7.266;2023-05-07T07:01:29;19.40;99.90
1447;DHT22;717;51.522;7.266;2023-05-07T07:04:00;19.50;99.90
1447;DHT22;717;51.522;7.266;2023-05-07T07:06:29;19.50;99.90
1447;DHT22;717;51.522;7.266;2023-05-07T07:08:58;19.50;99.90
1447;DHT22;717;51.522;7.266;2023-05-07T07:11:26;19.50;99.90
1447;DHT22;717;51.522;7.266;2023-05-07T07:13:55;19.50;99.90
1447;DHT22;717;51.522;7.266;2023-05-07T07:16:24;19.60;99.90
1447;DHT22;717;51.522;7.266;2023-05-07T07:18:53;19.60;99.90
1447;DHT22;717;51.522;7.266;2023-05-07T07:21:24;19.60;99.90
1447;DHT22;717;51.522;7.266;2023-05-07T07:23:52;19.60;99.90
1447;DHT22;717;51.522;7.266;2023-05-07T07:26:21;19.60;99.90
1447;DHT22;717;51.522;7.266;2023-05-07T07:28:50;19.60;99.90
1447;DHT22;717;51.522;7.266;2023-05-07T07:31:18;19.60;99.90
1447;DHT22;717;51.522;7.266;2023-05-07T07:33:47;19.70;99.90
1447;DHT22;717;51.522;7.266;2023-05-07T07:36:16;19.70;99.90
1447;DHT22;717;51.522;7.266;2023-05-07T07:38:47;19.70;99.90
1447;DHT22;717;51.522;7.266;2023-05-07T07:41:15;19.70;99.90
1447;DHT22;717;51.522;7.266;2023-05-07T07:43:44;19.70;99.90
1447;DHT22;717;51.522;7.266;2023-05-07T07:46:13;19.80;99.90
1447;DHT22;717;51.522;7.266;2023-05-07T07:48:41;19.80;99.90
1447;DHT22;717;51.522;7.266;2023-05-07T07:51:10;19.80;99.90
1447;DHT22;717;51.522;7.266;2023-05-07T07:53:38;19.80;99.90
1447;DHT22;717;51.522;7.266;2023-05-07T07:56:09;19.80;99.90
1447;DHT22;717;51.522;7.266;2023-05-07T07:58:38;19.80;99.90
1447;DHT22;717;51.522;7.266;2023-05-07T08:01:07;19.80;99.90
1447;DHT22;717;51.522;7.266;2023-05-07T08:03:37;19.90;99.90
1447;DHT22;717;51.522;7.266;2023-05-07T08:06:06;19.90;99.90
1447;DHT22;717;51.522;7.266;2023-05-07T08:08:34;19.90;99.90
1447;DHT22;717;51.522;7.266;2023-05-07T08:11:03;19.90;99.90
1447;DHT22;717;51.522;7.266;2023-05-07T08:13:34;19.90;99.90
1447;DHT22;717;51.522;7.266;2023-05-07T08:16:03;20.00;99.90
1447;DHT22;717;51.522;7.266;2023-05-07T08:18:32;20.00;99.90
1447;DHT22;717;51.522;7.266;2023-05-07T08:21:01;20.00;99.90
1447;DHT22;717;51.522;7.266;2023-05-07T08:23:30;20.00;99.90
1447;DHT22;717;51.522;7.266;2023-05-07T08:26:00;20.10;99.90
1447;DHT22;717;51.522;7.266;2023-05-07T08:28:28;20.10;99.90
1447;DHT22;717;51.522;7.266;2023-05-07T08:30:59;20.10;99.90
1447;DHT22;717;51.522;7.266;2023-05-07T08:33:28;20.10;99.90
1447;DHT22;717;51.522;7.266;2023-05-07T08:35:57;20.10;99.90
1447;DHT22;717;51.522;7.266;2023-05-07T08:38:25;20.10;99.90
1447;DHT22;717;51.522;7.266;2023-05-07T08:40:54;20.20;99.90
1447;DHT22;717;51.522;7.266;2023-05-07T08:43:25;20.20;99.90
1447;DHT22;717;51.522;7.266;2023-05-07T08:45:54;20.20;99.90
1447;DHT22;717;51.522;7.266;2023-05-07T08:48:27;20.30;99.90
1447;DHT22;717;51.522;7.266;2023-05-07T08:50:58;20.30;99.90
1447;DHT22;717;51.522;7.266;2023-05-07T08:53:26;20.30;99.90
1447;DHT22;717;51.522;7.266;2023-05-07T08:55:55;20.30;99.90
1447;DHT22;717;51.522;7.266;2023-05-07T08:58:24;20.30;99.90
1447;DHT22;717;51.522;7.266;2023-05-07T09:00:53;20.40;99.90
1447;DHT22;717;51.522;7.266;2023-05-07T09:03:22;20.40;99.90
1447;DHT22;717;51.522;7.266;2023-05-07T09:05:53;20.40;99.90
1447;DHT22;717;51.522;7.266;2023-05-07T09:08:25;20.40;99.90
1447;DHT22;717;51.522;7.266;2023-05-07T09:10:54;20.50;99.90
1447;DHT22;717;51.522;7.266;2023-05-07T09:13:22;20.40;99.90
1447;DHT22;717;51.522;7.266;2023-05-07T09:15:51;20.50;99.90
1447;DHT22;717;51.522;7.266;2023-05-07T09:18:20;20.50;99.90
1447;DHT22;717;51.522;7.266;2023-05-07T09:20:48;20.50;99.90
1447;DHT22;717;51.522;7.266;2023-05-07T09:23:20;20.60;99.90
1447;DHT22;717;51.522;7.266;2023-05-07T09:25:49;20.60;99.90
1447;DHT22;717;51.522;7.266;2023-05-07T09:28:17;20.60;99.90
1447;DHT22;717;51.522;7.266;2023-05-07T09:30:46;20.60;99.90
1447;DHT22;717;51.522;7.266;2023-05-07T09:33:15;20.70;99.90
1447;DHT22;717;51.522;7.266;2023-05-07T09:35:44;20.70;99.90
1447;DHT22;717;51.522;7.266;2023-05-07T09:38:12;20.70;99.90
1447;DHT22;717;51.522;7.266;2023-05-07T09:40:43;20.80;99.90
1447;DHT22;717;51.522;7.266;2023-05-07T09:43:13;20.80;99.90
1447;DHT22;717;51.522;7.266;2023-05-07T09:45:42;20.80;99.90
1447;DHT22;717;51.522;7.266;2023-05-07T09:48:12;20.90;99.90
1447;DHT22;717;51.522;7.266;2023-05-07T09:50:48;20.90;99.90
1447;DHT22;717;51.522;7.266;2023-05-07T09:53:17;20.90;99.90
1447;DHT22;717;51.522;7.266;2023-05-07T09:55:49;21.00;99.90
1447;DHT22;717;51.522;7.266;2023-05-07T09:58:19;21.10;99.90
1447;DHT22;717;51.522;7.266;2023-05-07T10:00:49;21.10;99.90
1447;DHT22;717;51.522;7.266;2023-05-07T10:03:19;21.20;99.90
1447;DHT22;717;51.522;7.266;2023-05-07T10:05:49;21.20;99.90
1447;DHT22;717;51.522;7.266;2023-05-07T10:08:19;21.20;99.90
1447;DHT22;717;51.522;7.266;2023-05-07T10:10:50;21.30;99.90
1447;DHT22;717;51.522;7.266;2023-05-07T10:13:19;21.30;99.90
1447;DHT22;717;51.522;7.266;2023-05-07T10:15:49;21.40;99.90
1447;DHT22;717;51.522;7.266;2023-05-07T10:18:20;21.40;99.90
1447;DHT22;717;51.522;7.266;2023-05-07T10:21:01;21.50;99.90
1447;DHT22;717;51.522;7.266;2023-05-07T10:23:32;21.50;99.90
1447;DHT22;717;51.522;7.266;2023-05-07T10:26:07;21.60;99.90
1447;DHT22;717;51.522;7.266;2023-05-07T10:28:39;21.60;99.90
1447;DHT22;717;51.522;7.266;2023-05-07T10:31:24;21.60;99.90
1447;DHT22;717;51.522;7.266;2023-05-07T10:33:55;21.70;99.90
1447;DHT22;717;51.522;7.266;2023-05-07T10:36:25;21.70;99.90
1447;DHT22;717;51.522;7.266;2023-05-07T10:38:55;21.70;99.90
1447;DHT22;717;51.522;7.266;2023-05-07T10:41:26;21.80;99.90
1447;DHT22;717;51.522;7.266;2023-05-07T10:43:54;21.80;99.90
1447;DHT22;717;51.522;7.266;2023-05-07T10:46:26;21.80;99.90
1447;DHT22;717;51.522;7.266;2023-05-07T10:49:11;21.90;99.90
1447;DHT22;717;51.522;7.266;2023-05-07T10:51:40;21.90;99.90
1447;DHT22;717;51.522;7.266;2023-05-07T10:54:19;21.90;99.90
1447;DHT22;717;51.522;7.266;2023-05-07T10:56:50;22.00;99.90
1447;DHT22;717;51.522;7.266;2023-05-07T10:59:40;22.00;99.90
1447;DHT22;717;51.522;7.266;2023-05-07T11:02:11;22.10;99.90
1447;DHT22;717;51.522;7.266;2023-05-07T11:04:41;22.10;99.90
1447;DHT22;717;51.522;7.266;2023-05-07T11:07:34;22.20;99.90
1447;DHT22;717;51.522;7.266;2023-05-07T11:10:04;22.20;99.90
1447;DHT22;717;51.522;7.266;2023-05-07T11:12:54;22.30;99.90
1447;DHT22;717;51.522;7.266;2023-05-07T11:15:42;22.30;99.90
1447;DHT22;717;51.522;7.266;2023-05-07T11:18:12;22.30;99.90
1447;DHT22;717;51.522;7.266;2023-05-07T11:21:03;22.40;99.90
1447;DHT22;717;51.522;7.266;2023-05-07T11:23:56;22.40;99.90
1447;DHT22;717;51.522;7.266;2023-05-07T11:26:27;22.50;99.90
1447;DHT22;717;51.522;7.266;2023-05-07T11:29:00;22.50;99.90
1447;DHT22;717;51.522;7.266;2023-05-07T11:31:28;22.50;99.90
1447;DHT22;717;51.522;7.266;2023-05-07T11:33:57;22.50;99.90
1447;DHT22;717;51.522;7.266;2023-05-07T11:36:31;22.60;99.90
1447;DHT22;717;51.522;7.266;2023-05-07T11:39:00;22.60;99.90
1447;DHT22;717;51.522;7.266;2023-05-07T11:41:35;22.60;99.90
1447;DHT22;717;51.522;7.266;2023-05-07T11:44:07;22.60;99.90
1447;DHT22;717;51.522;7.266;2023-05-07T11:46:35;22.60;99.90
1447;DHT22;717;51.522;7.266;2023-05-07T11:49:04;22.70;99.90
1447;DHT22;717;51.522;7.266;2023-05-07T11:51:34;22.70;99.90
1447;DHT22;717;51.522;7.266;2023-05-07T11:54:03;22.70;99.90
1447;DHT22;717;51.522;7.266;2023-05-07T11:56:34;22.70;99.90
1447;DHT22;717;51.522;7.266;2023-05-07T11:59:03;22.80;99.90
1447;DHT22;717;51.522;7.266;2023-05-07T12:01:35;22.80;99.90
1447;DHT22;717;51.522;7.266;2023-05-07T12:04:04;22.80;99.90
1447;DHT22;717;51.522;7.266;2023-05-07T12:06:36;22.80;99.90
1447;DHT22;717;51.522;7.266;2023-05-07T12:09:05;22.80;99.90
1447;DHT22;717;51.522;7.266;2023-05-07T12:11:37;22.80;99.90
1447;DHT22;717;51.522;7.266;2023-05-07T12:14:06;22.90;99.90
1447;DHT22;717;51.522;7.266;2023-05-07T12:16:38;22.90;99.90
1447;DHT22;717;51.522;7.266;2023-05-07T12:19:08;22.90;99.90
1447;DHT22;717;51.522;7.266;2023-05-07T12:21:38;22.90;99.90
1447;DHT22;717;51.522;7.266;2023-05-07T12:24:08;23.00;99.90
1447;DHT22;717;51.522;7.266;2023-05-07T12:26:38;23.00;99.90
1447;DHT22;717;51.522;7.266;2023-05-07T12:29:07;23.00;99.90
1447;DHT22;717;51.522;7.266;2023-05-07T12:31:40;23.10;99.90
1447;DHT22;717;51.522;7.266;2023-05-07T12:34:10;23.10;99.90
1447;DHT22;717;51.522;7.266;2023-05-07T12:36:40;23.20;99.90
1447;DHT22;717;51.522;7.266;2023-05-07T12:39:09;23.20;99.90
1447;DHT22;717;51.522;7.266;2023-05-07T12:41:53;23.20;99.90
1447;DHT22;717;51.522;7.266;2023-05-07T12:44:24;23.20;99.90
1447;DHT22;717;51.522;7.266;2023-05-07T12:46:55;23.30;99.90
1447;DHT22;717;51.522;7.266;2023-05-07T12:49:24;23.30;99.90
1447;DHT22;717;51.522;7.266;2023-05-07T12:51:53;23.30;99.90
1447;DHT22;717;51.522;7.266;2023-05-07T12:54:29;23.30;99.90
1447;DHT22;717;51.522;7.266;2023-05-07T12:57:01;23.30;99.90
1447;DHT22;717;51.522;7.266;2023-05-07T12:59:31;23.30;99.90
1447;DHT22;717;51.522;7.266;2023-05-07T13:02:03;23.30;99.90
1447;DHT22;717;51.522;7.266;2023-05-07T13:04:32;23.30;99.90
1447;DHT22;717;51.522;7.266;2023-05-07T13:07:01;23.30;99.90
1447;DHT22;717;51.522;7.266;2023-05-07T13:09:31;23.30;99.90
1447;DHT22;717;51.522;7.266;2023-05-07T13:11:59;23.30;99.90
1447;DHT22;717;51.522;7.266;2023-05-07T13:14:28;23.20;99.90
1447;DHT22;717;51.522;7.266;2023-05-07T13:16:57;23.30;99.90
1447;DHT22;717;51.522;7.266;2023-05-07T13:19:28;23.20;99.90
1447;DHT22;717;51.522;7.266;2023-05-07T13:21:56;23.20;99.90
1447;DHT22;717;51.522;7.266;2023-05-07T13:24:25;23.20;99.90
1447;DHT22;717;51.522;7.266;2023-05-07T13:26:53;23.20;99.90
1447;DHT22;717;51.522;7.266;2023-05-07T13:29:22;23.20;99.90
1447;DHT22;717;51.522;7.266;2023-05-07T13:31:55;23.10;99.90
1447;DHT22;717;51.522;7.266;2023-05-07T13:34:27;23.10;99.90
1447;DHT22;717;51.522;7.266;2023-05-07T13:36:56;23.10;99.90
1447;DHT22;717;51.522;7.266;2023-05-07T13:39:24;23.10;99.90
1447;DHT22;717;51.522;7.266;2023-05-07T13:41:53;23.10;99.90
1447;DHT22;717;51.522;7.266;2023-05-07T13:44:22;23.10;99.90
1447;DHT22;717;51.522;7.266;2023-05-07T13:46:50;23.10;99.90
1447;DHT22;717;51.522;7.266;2023-05-07T13:49:19;23.10;99.90
1447;DHT22;717;51.522;7.266;2023-05-07T13:51:50;23.10;99.90
1447;DHT22;717;51.522;7.266;2023-05-07T13:54:19;23.10;99.90
1447;DHT22;717;51.522;7.266;2023-05-07T13:56:47;23.10;99.90
1447;DHT22;717;51.522;7.266;2023-05-07T13:59:16;23.10;99.90
1447;DHT22;717;51.522;7.266;2023-05-07T14:01:45;23.10;99.90
1447;DHT22;717;51.522;7.266;2023-05-07T14:04:13;23.10;99.90
1447;DHT22;717;51.522;7.266;2023-05-07T14:06:42;23.00;99.90
1447;DHT22;717;51.522;7.266;2023-05-07T14:09:13;23.00;99.90
1447;DHT22;717;51.522;7.266;2023-05-07T14:11:41;23.10;99.90
1447;DHT22;717;51.522;7.266;2023-05-07T14:14:11;23.00;99.90
1447;DHT22;717;51.522;7.266;2023-05-07T14:16:40;23.00;99.90
1447;DHT22;717;51.522;7.266;2023-05-07T14:19:08;23.00;99.90
1447;DHT22;717;51.522;7.266;2023-05-07T14:21:37;23.00;99.90
1447;DHT22;717;51.522;7.266;2023-05-07T14:24:07;23.00;99.90
1447;DHT22;717;51.522;7.266;2023-05-07T14:26:38;23.00;99.90
1447;DHT22;717;51.522;7.266;2023-05-07T14:29:06;23.00;99.90
1447;DHT22;717;51.522;7.266;2023-05-07T14:31:35;22.90;99.90
1447;DHT22;717;51.522;7.266;2023-05-07T14:34:03;22.90;99.90
1447;DHT22;717;51.522;7.266;2023-05-07T14:36:32;22.90;99.90
1447;DHT22;717;51.522;7.266;2023-05-07T14:39:01;22.90;99.90
1447;DHT22;717;51.522;7.266;2023-05-07T14:41:30;22.90;99.90
1447;DHT22;717;51.522;7.266;2023-05-07T14:44:01;22.90;99.90
1447;DHT22;717;51.522;7.266;2023-05-07T14:46:30;23.00;99.90
1447;DHT22;717;51.522;7.266;2023-05-07T14:48:58;22.90;99.90
1447;DHT22;717;51.522;7.266;2023-05-07T14:51:27;22.90;99.90
1447;DHT22;717;51.522;7.266;2023-05-07T14:53:56;22.90;99.90
1447;DHT22;717;51.522;7.266;2023-05-07T14:56:25;23.00;99.90
1447;DHT22;717;51.522;7.266;2023-05-07T14:58:54;22.90;99.90
1447;DHT22;717;51.522;7.266;2023-05-07T15:01:26;22.90;99.90
1447;DHT22;717;51.522;7.266;2023-05-07T15:03:55;22.90;99.90
1447;DHT22;717;51.522;7.266;2023-05-07T15:06:24;22.90;99.90
1447;DHT22;717;51.522;7.266;2023-05-07T15:08:52;22.90;99.90
1447;DHT22;717;51.522;7.266;2023-05-07T15:11:21;22.90;99.90
1447;DHT22;717;51.522;7.266;2023-05-07T15:13:49;22.90;99.90
1447;DHT22;717;51.522;7.266;2023-05-07T15:16:18;22.90;99.90
1447;DHT22;717;51.522;7.266;2023-05-07T15:18:49;22.90;99.90
1447;DHT22;717;51.522;7.266;2023-05-07T15:21:18;22.90;99.90
1447;DHT22;717;51.522;7.266;2023-05-07T15:23:46;22.90;99.90
1447;DHT22;717;51.522;7.266;2023-05-07T15:26:15;22.90;99.90
1447;DHT22;717;51.522;7.266;2023-05-07T15:28:43;22.90;99.90
1447;DHT22;717;51.522;7.266;2023-05-07T15:31:12;22.90;99.90
1447;DHT22;717;51.522;7.266;2023-05-07T15:33:40;23.00;99.90
1447;DHT22;717;51.522;7.266;2023-05-07T15:36:12;22.90;99.90
1447;DHT22;717;51.522;7.266;2023-05-07T15:38:41;22.90;99.90
1447;DHT22;717;51.522;7.266;2023-05-07T15:41:10;22.90;99.90
1447;DHT22;717;51.522;7.266;2023-05-07T15:43:44;22.90;99.90
1447;DHT22;717;51.522;7.266;2023-05-07T15:46:17;22.90;99.90
1447;DHT22;717;51.522;7.266;2023-05-07T15:48:46;22.90;99.90
1447;DHT22;717;51.522;7.266;2023-05-07T15:51:17;22.80;99.90
1447;DHT22;717;51.522;7.266;2023-05-07T15:53:47;22.90;99.90
1447;DHT22;717;51.522;7.266;2023-05-07T15:56:16;22.90;99.90
1447;DHT22;717;51.522;7.266;2023-05-07T15:58:45;22.90;99.90
1447;DHT22;717;51.522;7.266;2023-05-07T16:01:14;22.90;99.90
1447;DHT22;717;51.522;7.266;2023-05-07T16:03:43;22.90;99.90
1447;DHT22;717;51.522;7.266;2023-05-07T16:06:12;22.80;99.90
1447;DHT22;717;51.522;7.266;2023-05-07T16:08:43;22.80;99.90
1447;DHT22;717;51.522;7.266;2023-05-07T16:11:12;22.80;99.90
1447;DHT22;717;51.522;7.266;2023-05-07T16:13:41;22.80;99.90
1447;DHT22;717;51.522;7.266;2023-05-07T16:16:10;22.80;99.90
1447;DHT22;717;51.522;7.266;2023-05-07T16:18:38;22.80;99.90
1447;DHT22;717;51.522;7.266;2023-05-07T16:21:07;22.80;99.90
1447;DHT22;717;51.522;7.266;2023-05-07T16:23:35;22.80;99.90
1447;DHT22;717;51.522;7.266;2023-05-07T16:26:07;22.80;99.90
1447;DHT22;717;51.522;7.266;2023-05-07T16:28:38;22.80;99.90
1447;DHT22;717;51.522;7.266;2023-05-07T16:31:06;22.80;99.90
1447;DHT22;717;51.522;7.266;2023-05-07T16:33:35;22.80;99.90